createdAt,value
2022-11-19T00:01:27.148Z,62.52
2022-11-19T00:03:54.719Z,62.57
2022-11-19T00:06:23.919Z,62.66
2022-11-19T00:08:50.958Z,62.62
2022-11-19T00:11:44.556Z,62.66
2022-11-19T00:14:14.043Z,62.51
2022-11-19T00:16:44.189Z,62.81
2022-11-19T00:19:12.047Z,62.71
2022-11-19T00:21:39.214Z,62.83
2022-11-19T00:24:06.886Z,62.96
2022-11-19T00:26:34.467Z,62.86
2022-11-19T00:29:01.465Z,62.86
2022-11-19T00:31:28.402Z,63.03
2022-11-19T00:33:55.487Z,63.13
2022-11-19T00:36:23.119Z,63.01
2022-11-19T00:38:50.378Z,63.35
2022-11-19T00:41:17.384Z,63.23
2022-11-19T00:43:53.659Z,63.23
2022-11-19T00:46:26.583Z,63.30
2022-11-19T00:48:55.404Z,63.25
2022-11-19T00:51:24.566Z,63.39
2022-11-19T00:53:52.047Z,63.54
2022-11-19T00:56:21.230Z,63.46
2022-11-19T00:58:48.883Z,63.51
2022-11-19T01:01:18.117Z,63.63
2022-11-19T01:03:46.406Z,63.52
2022-11-19T01:06:18.831Z,63.64
2022-11-19T01:08:46.508Z,63.40
2022-11-19T01:11:16.589Z,63.50
2022-11-19T01:13:44.051Z,63.54
2022-11-19T01:16:14.386Z,63.50
2022-11-19T01:18:42.873Z,63.64
2022-11-19T01:21:11.397Z,63.76
2022-11-19T01:23:39.610Z,63.76
2022-11-19T01:26:07.029Z,63.55
2022-11-19T01:28:34.766Z,63.85
2022-11-19T01:31:10.241Z,63.75
2022-11-19T01:33:38.348Z,63.87
2022-11-19T01:36:08.403Z,63.74
2022-11-19T01:38:35.245Z,63.66
2022-11-19T01:41:02.731Z,63.80
2022-11-19T01:43:45.946Z,63.60
2022-11-19T01:46:18.092Z,63.74
2022-11-19T01:49:06.349Z,63.89
2022-11-19T01:51:38.500Z,63.84
2022-11-19T01:54:23.002Z,63.93
2022-11-19T01:56:50.026Z,64.00
2022-11-19T01:59:19.469Z,64.28
2022-11-19T02:01:46.775Z,64.30
2022-11-19T02:04:16.871Z,63.90
2022-11-19T02:06:45.687Z,64.17
2022-11-19T02:09:12.516Z,64.09
2022-11-19T02:12:16.581Z,64.13
2022-11-19T02:14:54.994Z,64.07
2022-11-19T02:18:06.361Z,64.37
2022-11-19T02:20:48.548Z,64.05
2022-11-19T02:23:30.696Z,64.13
2022-11-19T02:26:00.611Z,64.11
2022-11-19T02:28:45.912Z,64.23
2022-11-19T02:31:24.416Z,64.38
2022-11-19T02:34:04.804Z,64.30
2022-11-19T02:36:56.959Z,64.26
2022-11-19T02:39:23.749Z,64.31
2022-11-19T02:41:53.568Z,64.47
2022-11-19T02:44:43.836Z,64.33
2022-11-19T02:47:16.553Z,64.54
2022-11-19T02:49:45.396Z,64.58
2022-11-19T02:52:14.889Z,64.69
2022-11-19T02:54:42.083Z,64.41
2022-11-19T02:57:12.094Z,64.59
2022-11-19T03:00:06.484Z,64.63
2022-11-19T03:02:56.967Z,64.75
2022-11-19T03:05:27.203Z,64.43
2022-11-19T03:07:54.312Z,64.52
2022-11-19T03:10:25.505Z,64.68
2022-11-19T03:13:01.289Z,64.56
2022-11-19T03:16:16.281Z,64.46
2022-11-19T03:18:55.523Z,64.51
2022-11-19T03:21:44.441Z,64.70
2022-11-19T03:24:20.773Z,64.57
2022-11-19T03:26:54.758Z,64.65
2022-11-19T03:29:25.369Z,64.78
2022-11-19T03:31:58.593Z,64.58
2022-11-19T03:34:29.073Z,64.73
2022-11-19T03:36:58.834Z,64.79
2022-11-19T03:39:26.023Z,64.64
2022-11-19T03:41:54.478Z,64.68
2022-11-19T03:44:37.113Z,64.71
2022-11-19T03:47:19.384Z,64.54
2022-11-19T03:49:51.114Z,64.66
2022-11-19T03:52:20.852Z,64.77
2022-11-19T03:54:48.162Z,64.87
2022-11-19T03:57:19.242Z,64.78
2022-11-19T03:59:47.478Z,65.02
2022-11-19T04:02:15.185Z,64.75
2022-11-19T04:04:42.483Z,65.01
2022-11-19T04:07:12.231Z,64.90
2022-11-19T04:09:40.393Z,64.78
2022-11-19T04:12:12.964Z,64.92
2022-11-19T04:14:39.843Z,64.80
2022-11-19T04:17:06.662Z,64.84
2022-11-19T04:19:33.518Z,64.83
2022-11-19T04:22:00.421Z,64.69
2022-11-19T04:24:27.247Z,64.72
2022-11-19T04:26:54.151Z,65.06
2022-11-19T04:29:21.242Z,65.02
2022-11-19T04:31:48.350Z,64.83
2022-11-19T04:34:15.350Z,65.16
2022-11-19T04:36:42.578Z,64.79
2022-11-19T04:39:11.171Z,65.06
2022-11-19T04:41:38.969Z,64.89
2022-11-19T04:44:05.945Z,65.15
2022-11-19T04:46:33.086Z,64.91
2022-11-19T04:48:59.955Z,65.14
2022-11-19T04:51:26.817Z,65.17
2022-11-19T04:53:54.930Z,64.95
2022-11-19T04:56:21.805Z,65.08
2022-11-19T04:58:48.654Z,65.02
2022-11-19T05:01:15.625Z,64.88
2022-11-19T05:03:42.635Z,64.78
2022-11-19T05:06:09.562Z,64.90
2022-11-19T05:08:36.439Z,64.66
2022-11-19T05:11:03.242Z,64.86
2022-11-19T05:13:30.074Z,64.84
2022-11-19T05:15:57.022Z,64.91
2022-11-19T05:18:24.639Z,64.96
2022-11-19T05:20:51.493Z,65.03
2022-11-19T05:23:18.373Z,65.00
2022-11-19T05:25:45.241Z,65.17
2022-11-19T05:28:12.109Z,64.93
2022-11-19T05:30:39.094Z,65.00
2022-11-19T05:33:05.969Z,64.98
2022-11-19T05:35:32.983Z,65.05
2022-11-19T05:37:59.873Z,64.86
2022-11-19T05:40:27.099Z,65.07
2022-11-19T05:42:54.006Z,64.97
2022-11-19T05:45:21.291Z,64.86
2022-11-19T05:47:48.938Z,64.93
2022-11-19T05:50:15.943Z,64.77
2022-11-19T05:52:42.745Z,65.13
2022-11-19T05:55:09.730Z,64.82
2022-11-19T05:57:37.329Z,64.98
2022-11-19T06:00:05.477Z,64.96
2022-11-19T06:02:32.309Z,65.08
2022-11-19T06:04:59.176Z,65.02
2022-11-19T06:07:26.061Z,64.80
2022-11-19T06:09:53.074Z,64.90
2022-11-19T06:12:20.040Z,64.90
2022-11-19T06:14:46.894Z,64.98
2022-11-19T06:17:13.809Z,64.85
2022-11-19T06:19:41.128Z,65.14
2022-11-19T06:22:07.977Z,65.05
2022-11-19T06:24:34.874Z,65.01
2022-11-19T06:27:01.858Z,64.79
2022-11-19T06:29:28.684Z,64.96
2022-11-19T06:31:55.497Z,64.89
2022-11-19T06:34:22.337Z,64.81
2022-11-19T06:36:50.773Z,64.84
2022-11-19T06:39:18.966Z,65.03
2022-11-19T06:41:48.997Z,65.19
2022-11-19T06:44:16.076Z,65.18
2022-11-19T06:46:43.114Z,65.44
2022-11-19T06:49:13.175Z,65.25
2022-11-19T06:51:42.402Z,64.54
2022-11-19T06:54:10.302Z,64.44
2022-11-19T06:56:37.140Z,64.60
2022-11-19T06:59:04.080Z,64.83
2022-11-19T07:01:31.041Z,65.09
2022-11-19T07:03:57.980Z,64.90
2022-11-19T07:06:24.778Z,64.89
2022-11-19T07:08:51.578Z,64.97
2022-11-19T07:11:36.649Z,65.22
2022-11-19T07:14:04.166Z,65.25
2022-11-19T07:16:33.885Z,65.16
2022-11-19T07:19:03.126Z,65.10
2022-11-19T07:21:30.561Z,65.23
2022-11-19T07:23:58.696Z,65.36
2022-11-19T07:26:26.469Z,65.28
2022-11-19T07:28:53.831Z,65.15
2022-11-19T07:31:20.978Z,65.09
2022-11-19T07:33:47.847Z,65.13
2022-11-19T07:36:18.410Z,65.33
2022-11-19T07:38:46.565Z,65.27
2022-11-19T07:41:32.528Z,65.02
2022-11-19T07:43:59.544Z,65.27
2022-11-19T07:46:26.477Z,65.32
2022-11-19T07:48:54.838Z,65.07
2022-11-19T07:51:22.578Z,65.20
2022-11-19T07:53:50.033Z,65.11
2022-11-19T07:56:17.359Z,65.19
2022-11-19T07:58:44.453Z,64.21
2022-11-19T08:01:14.744Z,63.99
2022-11-19T08:03:49.518Z,64.24
2022-11-19T08:06:21.026Z,64.67
2022-11-19T08:08:48.309Z,64.72
2022-11-19T08:11:16.761Z,64.85
2022-11-19T08:13:44.299Z,64.87
2022-11-19T08:16:14.255Z,65.08
2022-11-19T08:18:41.183Z,65.01
2022-11-19T08:21:12.241Z,64.91
2022-11-19T08:23:39.741Z,64.92
2022-11-19T08:26:08.017Z,65.05
2022-11-19T08:28:35.394Z,65.17
2022-11-19T08:31:09.561Z,65.07
2022-11-19T08:33:37.119Z,65.17
2022-11-19T08:36:04.457Z,65.19
2022-11-19T08:38:37.199Z,65.21
2022-11-19T08:41:24.450Z,65.10
2022-11-19T08:43:51.564Z,64.92
2022-11-19T08:46:18.666Z,65.08
2022-11-19T08:48:45.561Z,64.95
2022-11-19T08:51:15.068Z,64.74
2022-11-19T08:53:45.124Z,64.83
2022-11-19T08:56:16.837Z,64.88
2022-11-19T08:58:45.524Z,64.64
2022-11-19T09:01:14.586Z,64.91
2022-11-19T09:03:42.323Z,64.76
2022-11-19T09:06:09.831Z,64.57
2022-11-19T09:08:37.109Z,64.39
2022-11-19T09:11:08.134Z,64.52
2022-11-19T09:13:35.448Z,64.50
2022-11-19T09:16:03.112Z,64.47
2022-11-19T09:18:31.519Z,64.76
2022-11-19T09:20:59.117Z,64.70
2022-11-19T09:23:27.695Z,64.45
2022-11-19T09:26:03.017Z,64.54
2022-11-19T09:28:31.225Z,64.38
2022-11-19T09:31:18.048Z,64.12
2022-11-19T09:33:48.428Z,64.21
2022-11-19T09:36:16.229Z,64.22
2022-11-19T09:38:43.185Z,64.35
2022-11-19T09:41:35.420Z,64.45
2022-11-19T09:44:17.863Z,64.39
2022-11-19T09:47:22.139Z,64.66
2022-11-19T09:50:14.841Z,64.38
2022-11-19T09:52:47.868Z,64.29
2022-11-19T09:55:19.881Z,64.49
2022-11-19T09:57:52.132Z,64.52
2022-11-19T10:00:26.052Z,64.29
2022-11-19T10:02:54.304Z,64.46
2022-11-19T10:05:45.837Z,64.35
2022-11-19T10:08:31.754Z,64.35
2022-11-19T10:11:16.840Z,64.54
2022-11-19T10:14:10.238Z,64.44
2022-11-19T10:16:39.705Z,64.50
2022-11-19T10:19:06.741Z,64.48
2022-11-19T10:21:33.583Z,64.98
2022-11-19T10:24:06.616Z,64.72
2022-11-19T10:26:41.303Z,62.81
2022-11-19T10:29:25.230Z,63.60
2022-11-19T10:31:52.530Z,64.53
2022-11-19T10:34:27.996Z,65.81
2022-11-19T10:37:08.015Z,65.60
2022-11-19T10:39:40.351Z,65.59
2022-11-19T10:42:24.972Z,64.90
2022-11-19T10:44:58.004Z,65.26
2022-11-19T10:47:40.219Z,66.60
2022-11-19T10:50:11.251Z,65.70
2022-11-19T10:52:42.817Z,64.59
2022-11-19T10:55:34.724Z,65.83
2022-11-19T10:58:24.631Z,67.04
2022-11-19T11:00:56.032Z,66.58
2022-11-19T11:03:31.829Z,66.95
2022-11-19T11:06:06.765Z,66.12
2022-11-19T11:08:34.180Z,67.04
2022-11-19T11:11:01.624Z,67.32
2022-11-19T11:13:53.214Z,66.77
2022-11-19T11:16:42.587Z,66.54
2022-11-19T11:19:19.748Z,65.47
2022-11-19T11:21:52.441Z,65.25
2022-11-19T11:24:19.809Z,65.34
2022-11-19T11:26:46.898Z,65.13
2022-11-19T11:29:13.953Z,65.29
2022-11-19T11:31:46.368Z,65.17
2022-11-19T11:34:36.365Z,65.38
2022-11-19T11:37:06.890Z,65.23
2022-11-19T11:39:44.500Z,65.18
2022-11-19T11:42:17.434Z,65.09
2022-11-19T11:45:00.553Z,65.26
2022-11-19T11:47:31.503Z,65.06
2022-11-19T11:50:15.157Z,64.83
2022-11-19T11:52:46.720Z,64.88
2022-11-19T11:55:31.985Z,64.82
2022-11-19T11:58:32.060Z,65.01
2022-11-19T12:01:18.648Z,64.79
2022-11-19T12:03:57.231Z,65.02
2022-11-19T12:06:40.903Z,65.10
2022-11-19T12:09:34.171Z,63.26
2022-11-19T12:12:19.732Z,62.61
2022-11-19T12:15:20.738Z,63.31
2022-11-19T12:17:57.479Z,63.52
2022-11-19T12:20:39.828Z,64.06
2022-11-19T12:23:15.648Z,63.97
2022-11-19T12:26:18.132Z,64.16
2022-11-19T12:29:06.457Z,62.09
2022-11-19T12:31:33.355Z,63.59
2022-11-19T12:34:02.939Z,64.22
2022-11-19T12:36:44.276Z,64.12
2022-11-19T12:39:27.368Z,64.43
2022-11-19T12:42:23.570Z,64.50
2022-11-19T12:44:50.516Z,65.78
2022-11-19T12:47:32.756Z,66.10
2022-11-19T12:50:11.671Z,65.68
2022-11-19T12:53:27.721Z,65.87
2022-11-19T12:56:17.588Z,65.61
2022-11-19T12:59:10.689Z,66.08
2022-11-19T13:01:42.909Z,66.40
2022-11-19T13:04:41.065Z,67.14
2022-11-19T13:07:25.510Z,66.59
2022-11-19T13:10:02.100Z,66.24
2022-11-19T13:12:43.778Z,66.40
2022-11-19T13:15:25.143Z,66.97
2022-11-19T13:17:55.522Z,66.38
2022-11-19T13:20:33.433Z,65.86
2022-11-19T13:23:05.347Z,66.00
2022-11-19T13:25:37.236Z,66.07
2022-11-19T13:28:13.362Z,65.95
2022-11-19T13:30:42.992Z,64.00
2022-11-19T13:33:23.169Z,63.07
2022-11-19T13:36:03.832Z,62.34
2022-11-19T13:38:52.705Z,62.27
2022-11-19T13:41:30.395Z,62.76
2022-11-19T13:44:17.484Z,62.73
2022-11-19T13:47:00.304Z,62.86
2022-11-19T13:49:47.150Z,62.43
2022-11-19T13:52:35.300Z,63.35
2022-11-19T13:55:02.670Z,63.47
2022-11-19T13:57:44.614Z,64.38
2022-11-19T14:00:28.272Z,64.78
2022-11-19T14:03:22.003Z,64.96
2022-11-19T14:06:10.814Z,65.21
2022-11-19T14:09:18.256Z,65.61
2022-11-19T14:11:48.145Z,65.58
2022-11-19T14:14:48.413Z,65.40
2022-11-19T14:17:54.331Z,65.38
2022-11-19T14:21:01.123Z,65.52
2022-11-19T14:23:55.731Z,65.48
2022-11-19T14:26:41.012Z,65.62
2022-11-19T14:29:28.012Z,65.71
2022-11-19T14:32:01.280Z,65.60
2022-11-19T14:34:30.835Z,65.54
2022-11-19T14:37:01.143Z,65.84
2022-11-19T14:39:40.131Z,65.72
2022-11-19T14:42:14.214Z,65.60
2022-11-19T14:44:42.477Z,65.40
2022-11-19T14:47:18.509Z,65.39
2022-11-19T14:49:48.960Z,65.38
2022-11-19T14:52:22.117Z,65.44
2022-11-19T14:54:58.864Z,65.64
2022-11-19T14:57:38.886Z,65.69
2022-11-19T15:00:16.658Z,65.32
2022-11-19T15:02:48.699Z,65.21
2022-11-19T15:05:29.708Z,65.14
2022-11-19T15:08:19.986Z,65.03
2022-11-19T15:11:02.814Z,64.78
2022-11-19T15:13:34.591Z,64.62
2022-11-19T15:16:12.807Z,64.80
2022-11-19T15:18:42.599Z,64.60
2022-11-19T15:21:17.195Z,65.03
2022-11-19T15:23:59.728Z,65.04
2022-11-19T15:26:36.403Z,65.44
2022-11-19T15:29:15.851Z,65.40
2022-11-19T15:32:01.752Z,65.41
2022-11-19T15:35:10.488Z,65.44
2022-11-19T15:38:00.169Z,64.65
2022-11-19T15:40:30.733Z,63.81
2022-11-19T15:43:31.049Z,65.09
2022-11-19T15:46:06.386Z,65.59
2022-11-19T15:48:44.613Z,65.94
2022-11-19T15:51:15.434Z,65.90
2022-11-19T15:54:02.084Z,65.76
2022-11-19T15:56:33.748Z,65.80
2022-11-19T15:59:03.938Z,65.79
2022-11-19T16:01:35.000Z,65.70
2022-11-19T16:04:15.224Z,65.64
2022-11-19T16:06:49.788Z,65.54
2022-11-19T16:09:22.221Z,65.58
2022-11-19T16:12:08.586Z,65.51
2022-11-19T16:14:54.447Z,65.12
2022-11-19T16:17:34.933Z,65.27
2022-11-19T16:20:12.275Z,65.15
2022-11-19T16:22:41.721Z,63.32
2022-11-19T16:25:14.772Z,60.61
2022-11-19T16:27:43.653Z,60.53
2022-11-19T16:30:23.338Z,62.46
2022-11-19T16:32:52.629Z,63.05
2022-11-19T16:35:25.579Z,63.17
2022-11-19T16:37:55.952Z,63.36
2022-11-19T16:40:25.220Z,63.47
2022-11-19T16:42:59.332Z,63.83
2022-11-19T16:45:33.075Z,63.89
2022-11-19T16:48:03.866Z,64.20
2022-11-19T16:50:46.534Z,62.93
2022-11-19T16:53:47.931Z,63.28
2022-11-19T16:56:17.047Z,63.53
2022-11-19T16:58:47.822Z,63.54
2022-11-19T17:01:19.679Z,63.24
2022-11-19T17:03:49.459Z,63.31
2022-11-19T17:06:26.262Z,63.29
2022-11-19T17:09:01.902Z,63.15
2022-11-19T17:12:12.444Z,63.44
2022-11-19T17:14:40.823Z,63.57
2022-11-19T17:17:26.970Z,63.32
2022-11-19T17:19:56.862Z,63.45
2022-11-19T17:22:33.492Z,63.50
2022-11-19T17:25:04.262Z,63.43
2022-11-19T17:27:37.893Z,63.41
2022-11-19T17:30:26.323Z,63.33
2022-11-19T17:32:58.180Z,63.42
2022-11-19T17:35:36.841Z,63.41
2022-11-19T17:38:30.774Z,63.33
2022-11-19T17:41:05.644Z,63.17
2022-11-19T17:43:58.114Z,63.35
2022-11-19T17:46:28.772Z,63.20
2022-11-19T17:48:55.816Z,63.02
2022-11-19T17:51:26.149Z,62.98
2022-11-19T17:53:53.753Z,62.90
2022-11-19T17:56:30.248Z,62.85
2022-11-19T17:59:00.140Z,62.80
2022-11-19T18:01:27.731Z,62.83
2022-11-19T18:03:55.089Z,62.78
2022-11-19T18:06:22.333Z,62.81
2022-11-19T18:08:49.661Z,62.83
2022-11-19T18:11:23.581Z,62.94
2022-11-19T18:13:57.653Z,63.02
2022-11-19T18:16:27.607Z,60.38
2022-11-19T18:18:56.332Z,62.07
2022-11-19T18:21:28.979Z,62.11
2022-11-19T18:23:56.128Z,62.33
2022-11-19T18:26:24.079Z,62.28
2022-11-19T18:28:51.826Z,62.15
2022-11-19T18:31:27.200Z,62.19
2022-11-19T18:33:55.833Z,62.15
2022-11-19T18:36:24.539Z,62.14
2022-11-19T18:38:53.390Z,62.20
2022-11-19T18:41:20.842Z,62.08
2022-11-19T18:44:06.825Z,61.43
2022-11-19T18:46:34.902Z,61.63
2022-11-19T18:49:03.321Z,61.54
2022-11-19T18:51:33.211Z,61.33
2022-11-19T18:54:02.696Z,61.30
2022-11-19T18:56:29.777Z,61.41
2022-11-19T18:59:00.461Z,61.20
2022-11-19T19:01:33.205Z,61.10
2022-11-19T19:04:03.685Z,61.08
2022-11-19T19:06:32.379Z,60.85
2022-11-19T19:09:00.152Z,61.29
2022-11-19T19:11:47.740Z,61.34
2022-11-19T19:14:17.169Z,59.71
2022-11-19T19:16:44.325Z,60.34
2022-11-19T19:19:14.984Z,61.03
2022-11-19T19:21:43.203Z,61.21
2022-11-19T19:24:10.741Z,61.39
2022-11-19T19:26:38.189Z,61.13
2022-11-19T19:29:07.915Z,61.09
2022-11-19T19:31:36.584Z,61.00
2022-11-19T19:34:04.861Z,61.05
2022-11-19T19:36:36.381Z,60.73
2022-11-19T19:39:05.329Z,59.51
2022-11-19T19:41:33.008Z,60.25
2022-11-19T19:44:04.428Z,60.54
2022-11-19T19:46:33.777Z,60.62
2022-11-19T19:49:00.999Z,60.64
2022-11-19T19:51:30.824Z,60.87
2022-11-19T19:54:00.053Z,61.12
2022-11-19T19:56:32.322Z,61.04
2022-11-19T19:59:00.728Z,61.00
2022-11-19T20:01:35.550Z,60.86
2022-11-19T20:04:08.400Z,60.55
2022-11-19T20:06:43.939Z,60.59
2022-11-19T20:09:16.978Z,60.58
2022-11-19T20:11:44.724Z,60.57
2022-11-19T20:14:11.985Z,60.56
2022-11-19T20:16:41.414Z,61.11
2022-11-19T20:19:14.615Z,61.52
2022-11-19T20:21:42.316Z,61.45
2022-11-19T20:24:13.125Z,61.75
2022-11-19T20:26:42.677Z,61.57
2022-11-19T20:29:14.799Z,61.55
2022-11-19T20:31:47.395Z,61.67
2022-11-19T20:34:17.314Z,61.50
2022-11-19T20:36:44.822Z,61.26
2022-11-19T20:39:13.452Z,61.36
2022-11-19T20:41:59.540Z,61.17
2022-11-19T20:44:26.784Z,61.16
2022-11-19T20:47:02.873Z,61.13
2022-11-19T20:49:36.616Z,61.11
2022-11-19T20:52:04.161Z,60.77
2022-11-19T20:54:32.305Z,60.65
2022-11-19T20:57:00.684Z,60.74
2022-11-19T20:59:28.835Z,58.83
2022-11-19T21:01:57.502Z,59.43
2022-11-19T21:04:26.607Z,59.52
2022-11-19T21:06:57.485Z,59.41
2022-11-19T21:09:25.423Z,59.63
2022-11-19T21:11:53.021Z,59.39
2022-11-19T21:14:20.352Z,59.27
2022-11-19T21:16:49.376Z,59.11
2022-11-19T21:19:21.416Z,59.14
2022-11-19T21:21:48.973Z,59.02
2022-11-19T21:24:16.798Z,58.83
2022-11-19T21:26:46.869Z,58.98
2022-11-19T21:29:15.178Z,58.90
2022-11-19T21:31:44.675Z,59.06
2022-11-19T21:34:18.154Z,58.67
2022-11-19T21:36:48.752Z,57.12
2022-11-19T21:39:19.389Z,58.40
2022-11-19T21:41:47.214Z,58.45
2022-11-19T21:44:19.856Z,58.38
2022-11-19T21:46:48.623Z,58.45
2022-11-19T21:49:16.344Z,58.51
2022-11-19T21:51:44.310Z,58.50
2022-11-19T21:54:13.104Z,58.45
2022-11-19T21:56:41.698Z,57.99
2022-11-19T21:59:09.486Z,58.38
2022-11-19T22:01:37.363Z,58.70
2022-11-19T22:04:05.699Z,58.81
2022-11-19T22:06:33.293Z,58.83
2022-11-19T22:09:00.689Z,58.85
2022-11-19T22:11:31.237Z,59.15
2022-11-19T22:14:04.666Z,59.29
2022-11-19T22:16:34.377Z,59.34
2022-11-19T22:19:01.836Z,59.26
2022-11-19T22:21:32.169Z,59.27
2022-11-19T22:24:00.779Z,59.33
2022-11-19T22:26:28.336Z,59.34
2022-11-19T22:28:56.959Z,59.63
2022-11-19T22:31:25.492Z,59.73
2022-11-19T22:33:54.195Z,59.66
2022-11-19T22:36:23.364Z,59.85
2022-11-19T22:38:51.864Z,59.82
2022-11-19T22:41:20.929Z,59.91
2022-11-19T22:43:48.651Z,59.93
2022-11-19T22:46:16.340Z,60.06
2022-11-19T22:48:43.643Z,60.16
2022-11-19T22:51:18.223Z,60.10
2022-11-19T22:53:45.860Z,60.37
2022-11-19T22:56:15.854Z,60.47
2022-11-19T22:58:43.428Z,60.38
2022-11-19T23:01:24.471Z,60.39
2022-11-19T23:03:52.043Z,60.48
2022-11-19T23:06:19.676Z,60.67
2022-11-19T23:08:47.179Z,60.90
2022-11-19T23:11:16.464Z,60.88
2022-11-19T23:13:45.505Z,60.93
2022-11-19T23:16:16.324Z,60.96
2022-11-19T23:18:49.911Z,60.79
2022-11-19T23:21:21.038Z,60.93
2022-11-19T23:23:48.747Z,60.91
2022-11-19T23:26:19.112Z,60.95
2022-11-19T23:28:46.374Z,60.97
2022-11-19T23:31:21.923Z,60.94
2022-11-19T23:33:54.463Z,61.00
2022-11-19T23:36:27.639Z,61.26
2022-11-19T23:38:54.859Z,61.14
2022-11-19T23:41:22.620Z,61.11
2022-11-19T23:43:51.570Z,61.32
2022-11-19T23:46:22.977Z,61.41
2022-11-19T23:48:51.514Z,61.38
2022-11-19T23:51:25.500Z,61.68
2022-11-19T23:53:53.534Z,61.62
2022-11-19T23:56:22.326Z,61.77
2022-11-19T23:58:49.951Z,61.83
